createdAt,value
2022-08-17T00:02:27.271Z,11.33
2022-08-17T00:05:32.354Z,11.00
2022-08-17T00:08:38.264Z,9.90
2022-08-17T00:12:42.703Z,10.63
2022-08-17T00:15:10.484Z,10.10
2022-08-17T00:19:06.952Z,12.23
2022-08-17T00:21:44.710Z,11.03
2022-08-17T00:25:12.041Z,10.60
2022-08-17T00:28:17.303Z,11.77
2022-08-17T00:31:20.566Z,10.93
2022-08-17T00:34:25.253Z,11.93
2022-08-17T00:37:30.924Z,11.77
2022-08-17T00:40:40.696Z,12.17
2022-08-17T00:43:51.392Z,11.87
2022-08-17T00:46:54.461Z,12.80
2022-08-17T00:49:57.444Z,13.20
2022-08-17T00:53:00.582Z,13.13
2022-08-17T00:56:08.079Z,13.37
2022-08-17T00:59:16.941Z,13.40
2022-08-17T01:02:20.336Z,13.97
2022-08-17T01:05:30.506Z,13.57
2022-08-17T01:08:34.010Z,14.83
2022-08-17T01:11:37.176Z,14.90
2022-08-17T01:14:41.941Z,14.37
2022-08-17T01:17:46.045Z,14.30
2022-08-17T01:20:51.865Z,14.20
2022-08-17T01:23:57.368Z,14.63
2022-08-17T01:27:00.399Z,14.73
2022-08-17T01:30:57.108Z,14.53
2022-08-17T01:33:31.286Z,15.07
2022-08-17T01:36:34.360Z,14.97
2022-08-17T01:39:42.119Z,16.07
2022-08-17T01:42:49.614Z,15.80
2022-08-17T01:46:02.828Z,17.43
2022-08-17T01:49:08.843Z,16.03
2022-08-17T01:52:13.546Z,16.30
2022-08-17T01:55:25.877Z,16.77
2022-08-17T01:58:30.729Z,16.40
2022-08-17T02:01:34.888Z,16.57
2022-08-17T02:04:37.970Z,14.77
2022-08-17T02:07:59.879Z,15.43
2022-08-17T02:11:11.205Z,13.97
2022-08-17T02:14:15.596Z,14.83
2022-08-17T02:17:18.680Z,15.77
2022-08-17T02:20:41.316Z,15.60
2022-08-17T02:23:48.499Z,15.50
2022-08-17T02:26:52.916Z,16.07
2022-08-17T02:29:55.915Z,14.77
2022-08-17T02:32:58.991Z,15.23
2022-08-17T02:36:08.898Z,15.73
2022-08-17T02:39:15.549Z,15.63
2022-08-17T02:42:19.880Z,14.87
2022-08-17T02:45:25.177Z,15.73
2022-08-17T02:48:31.485Z,16.47
2022-08-17T02:51:35.245Z,15.23
2022-08-17T02:54:41.607Z,15.07
2022-08-17T02:57:46.788Z,15.23
2022-08-17T03:00:49.829Z,17.37
2022-08-17T03:03:52.860Z,16.00
2022-08-17T03:06:56.129Z,18.30
2022-08-17T03:10:00.097Z,16.27
2022-08-17T03:13:05.549Z,15.60
2022-08-17T03:16:09.091Z,17.17
2022-08-17T03:19:12.550Z,17.03
2022-08-17T03:22:46.541Z,16.90
2022-08-17T03:25:41.124Z,18.60
2022-08-17T03:28:47.823Z,15.97
2022-08-17T03:31:51.315Z,18.40
2022-08-17T03:35:00.081Z,18.17
2022-08-17T03:38:04.196Z,16.93
2022-08-17T03:41:07.742Z,18.50
2022-08-17T03:44:12.073Z,18.37
2022-08-17T03:47:32.575Z,17.53
2022-08-17T03:50:52.958Z,17.97
2022-08-17T03:54:15.499Z,18.30
2022-08-17T03:57:19.246Z,17.70
2022-08-17T04:00:23.746Z,18.17
2022-08-17T04:03:26.787Z,18.03
2022-08-17T04:06:29.810Z,17.83
2022-08-17T04:09:33.019Z,17.67
2022-08-17T04:12:46.580Z,17.53
2022-08-17T04:15:51.027Z,18.30
2022-08-17T04:18:54.800Z,17.73
2022-08-17T04:21:58.700Z,16.70
2022-08-17T04:25:04.957Z,17.57
2022-08-17T04:28:09.448Z,17.23
2022-08-17T04:31:20.260Z,18.03
2022-08-17T04:34:25.061Z,18.37
2022-08-17T04:37:28.068Z,18.47
2022-08-17T04:40:48.507Z,18.77
2022-08-17T04:43:55.933Z,18.07
2022-08-17T04:47:00.342Z,18.30
2022-08-17T04:50:04.033Z,18.83
2022-08-17T04:53:07.071Z,20.10
2022-08-17T04:56:17.082Z,18.87
2022-08-17T04:59:23.382Z,19.53
2022-08-17T05:02:27.708Z,19.30
2022-08-17T05:05:33.080Z,20.53
2022-08-17T05:08:36.579Z,22.53
2022-08-17T05:11:39.864Z,21.53
2022-08-17T05:14:48.078Z,19.53
2022-08-17T05:17:52.403Z,19.33
2022-08-17T05:20:56.274Z,21.47
2022-08-17T05:24:00.155Z,20.97
2022-08-17T05:27:06.595Z,19.73
2022-08-17T05:30:10.358Z,19.40
2022-08-17T05:33:17.530Z,20.23
2022-08-17T05:36:43.123Z,19.07
2022-08-17T05:39:43.548Z,21.20
2022-08-17T05:42:46.641Z,17.87
2022-08-17T05:45:58.445Z,22.60
2022-08-17T05:49:05.804Z,17.97
2022-08-17T05:52:21.614Z,18.77
2022-08-17T05:55:31.694Z,17.60
2022-08-17T05:58:48.103Z,18.73
2022-08-17T06:01:58.143Z,21.17
2022-08-17T06:05:17.764Z,18.67
2022-08-17T06:08:27.948Z,19.73
2022-08-17T06:11:39.841Z,18.73
2022-08-17T06:14:55.851Z,19.60
2022-08-17T06:18:03.094Z,18.00
2022-08-17T06:21:12.505Z,18.63
2022-08-17T06:24:29.608Z,18.73
2022-08-17T06:27:36.602Z,19.37
2022-08-17T06:30:59.873Z,19.73
2022-08-17T06:34:08.060Z,19.53
2022-08-17T06:37:25.023Z,19.43
2022-08-17T06:40:46.353Z,17.07
2022-08-17T06:44:04.193Z,14.83
2022-08-17T06:47:13.501Z,14.97
2022-08-17T06:50:20.836Z,14.00
2022-08-17T06:53:28.047Z,13.70
2022-08-17T06:56:52.921Z,18.33
2022-08-17T07:00:02.706Z,18.13
2022-08-17T07:03:15.744Z,15.77
2022-08-17T07:06:21.648Z,16.63
2022-08-17T07:09:31.587Z,14.60
2022-08-17T07:12:40.008Z,14.43
2022-08-17T07:15:46.380Z,13.97
2022-08-17T07:18:51.608Z,12.57
2022-08-17T07:22:04.595Z,14.87
2022-08-17T07:25:11.088Z,13.13
2022-08-17T07:28:23.491Z,12.83
2022-08-17T07:31:30.414Z,12.80
2022-08-17T07:35:10.626Z,12.80
2022-08-17T07:38:25.330Z,11.67
2022-08-17T07:41:53.069Z,12.10
2022-08-17T07:45:19.515Z,10.40
2022-08-17T07:48:24.147Z,11.20
2022-08-17T07:51:31.204Z,12.97
2022-08-17T07:54:36.811Z,10.67
2022-08-17T07:57:41.187Z,10.30
2022-08-17T08:00:44.277Z,8.53
2022-08-17T08:03:52.380Z,10.33
2022-08-17T08:06:58.821Z,10.10
2022-08-17T08:10:07.371Z,7.33
2022-08-17T08:13:14.843Z,11.93
2022-08-17T08:16:25.720Z,7.67
2022-08-17T08:19:30.152Z,8.23
2022-08-17T08:22:44.159Z,8.80
2022-08-17T08:25:56.678Z,6.73
2022-08-17T08:29:09.225Z,7.07
2022-08-17T08:32:20.914Z,6.57
2022-08-17T08:35:30.944Z,6.60
2022-08-17T08:38:45.740Z,6.00
2022-08-17T08:41:57.005Z,6.77
2022-08-17T08:45:13.570Z,7.47
2022-08-17T08:48:56.395Z,5.67
2022-08-17T08:52:03.348Z,5.53
2022-08-17T08:55:13.273Z,6.20
2022-08-17T08:58:31.991Z,5.07
2022-08-17T09:01:53.751Z,6.33
2022-08-17T09:05:14.242Z,7.17
2022-08-17T09:08:25.710Z,5.13
2022-08-17T09:12:01.474Z,4.73
2022-08-17T09:15:12.310Z,5.20
2022-08-17T09:19:00.247Z,4.73
2022-08-17T09:21:48.966Z,5.10
2022-08-17T09:24:57.034Z,5.37
2022-08-17T09:28:03.685Z,5.40
2022-08-17T09:31:11.035Z,6.13
2022-08-17T09:34:18.368Z,5.97
2022-08-17T09:37:28.242Z,5.83
2022-08-17T09:40:36.308Z,5.13
2022-08-17T09:43:44.195Z,5.40
2022-08-17T09:46:54.342Z,5.37
2022-08-17T09:50:04.563Z,6.33
2022-08-17T09:53:08.704Z,6.03
2022-08-17T09:56:33.043Z,5.17
2022-08-17T09:59:48.563Z,6.00
2022-08-17T10:03:20.800Z,5.50
2022-08-17T10:06:30.753Z,5.30
2022-08-17T10:09:45.471Z,6.57
2022-08-17T10:12:53.263Z,6.13
2022-08-17T10:16:04.277Z,7.90
2022-08-17T10:19:15.972Z,5.73
2022-08-17T10:22:44.288Z,5.43
2022-08-17T10:26:08.801Z,5.20
2022-08-17T10:29:17.388Z,6.28
2022-08-17T10:32:32.078Z,5.22
2022-08-17T10:35:43.978Z,5.72
2022-08-17T10:38:50.594Z,5.45
2022-08-17T10:41:58.751Z,5.68
2022-08-17T10:45:07.828Z,4.95
2022-08-17T10:48:29.911Z,5.40
2022-08-17T10:51:38.824Z,4.80
2022-08-17T10:54:50.021Z,5.80
2022-08-17T10:57:54.770Z,5.20
2022-08-17T11:00:59.528Z,5.38
2022-08-17T11:04:21.208Z,6.40
2022-08-17T11:07:41.068Z,5.32
2022-08-17T11:11:07.556Z,5.23
2022-08-17T11:14:28.220Z,5.50
2022-08-17T11:17:49.711Z,6.20
2022-08-17T11:21:31.823Z,4.73
2022-08-17T11:24:38.294Z,4.70
2022-08-17T11:27:43.952Z,6.43
2022-08-17T11:30:51.268Z,4.43
2022-08-17T11:33:59.116Z,6.53
2022-08-17T11:37:19.272Z,4.63
2022-08-17T11:40:43.170Z,5.60
2022-08-17T11:44:05.712Z,5.63
2022-08-17T11:47:36.470Z,6.18
2022-08-17T11:51:06.615Z,4.53
2022-08-17T11:54:32.230Z,4.72
2022-08-17T11:58:07.187Z,5.83
2022-08-17T12:01:16.027Z,5.57
2022-08-17T12:04:25.821Z,4.93
2022-08-17T12:07:32.155Z,6.03
2022-08-17T12:10:37.883Z,5.10
2022-08-17T12:13:46.526Z,5.63
2022-08-17T12:17:02.191Z,5.25
2022-08-17T12:20:23.994Z,5.27
2022-08-17T12:23:36.861Z,4.80
2022-08-17T12:26:40.676Z,5.37
2022-08-17T12:29:45.275Z,5.03
2022-08-17T12:32:50.078Z,5.60
2022-08-17T12:35:59.641Z,4.88
2022-08-17T12:39:12.860Z,5.22
2022-08-17T12:42:24.595Z,4.97
2022-08-17T12:45:30.330Z,6.70
2022-08-17T12:48:36.705Z,4.55
2022-08-17T12:51:44.972Z,4.20
2022-08-17T12:54:59.390Z,5.63
2022-08-17T12:58:03.084Z,7.87
2022-08-17T13:01:09.171Z,4.57
2022-08-17T13:04:16.767Z,6.00
2022-08-17T13:07:32.059Z,5.13
2022-08-17T13:10:37.959Z,4.57
2022-08-17T13:13:43.727Z,8.07
2022-08-17T13:16:53.194Z,4.40
2022-08-17T13:19:58.241Z,6.20
2022-08-17T13:23:09.981Z,5.07
2022-08-17T13:26:16.953Z,6.30
2022-08-17T13:29:24.682Z,4.93
2022-08-17T13:32:44.090Z,5.10
2022-08-17T13:35:51.413Z,4.97
2022-08-17T13:39:08.292Z,4.50
2022-08-17T13:42:34.915Z,4.83
2022-08-17T13:46:09.318Z,4.60
2022-08-17T13:49:12.828Z,4.97
2022-08-17T13:52:38.663Z,7.13
2022-08-17T13:55:49.665Z,5.13
2022-08-17T13:58:55.310Z,4.53
2022-08-17T14:01:59.452Z,4.97
2022-08-17T14:05:03.117Z,4.83
2022-08-17T14:08:14.156Z,4.90
2022-08-17T14:11:18.368Z,4.43
2022-08-17T14:14:23.101Z,5.17
2022-08-17T14:17:28.742Z,5.77
2022-08-17T14:20:31.963Z,5.63
2022-08-17T14:23:37.095Z,5.10
2022-08-17T14:26:40.148Z,5.00
2022-08-17T14:29:43.779Z,6.40
2022-08-17T14:32:48.532Z,5.90
2022-08-17T14:35:53.476Z,4.90
2022-08-17T14:38:57.856Z,4.90
2022-08-17T14:42:02.116Z,5.90
2022-08-17T14:45:06.341Z,5.23
2022-08-17T14:48:30.163Z,4.60
2022-08-17T14:51:33.167Z,5.50
2022-08-17T14:54:40.195Z,4.73
2022-08-17T14:57:45.775Z,4.57
2022-08-17T15:00:50.883Z,5.27
2022-08-17T15:03:54.564Z,4.00
2022-08-17T15:06:58.255Z,5.10
2022-08-17T15:10:03.036Z,5.13
2022-08-17T15:13:11.283Z,5.17
2022-08-17T15:16:14.588Z,4.97
2022-08-17T15:19:17.818Z,7.33
2022-08-17T15:22:27.002Z,5.73
2022-08-17T15:25:34.466Z,7.77
2022-08-17T15:28:37.670Z,5.20
2022-08-17T15:31:40.680Z,6.00
2022-08-17T15:34:43.681Z,5.33
2022-08-17T15:37:46.717Z,8.13
2022-08-17T15:40:52.422Z,6.13
2022-08-17T15:43:55.992Z,7.53
2022-08-17T15:46:58.998Z,6.43
2022-08-17T15:50:02.055Z,7.07
2022-08-17T15:53:05.253Z,7.40
2022-08-17T15:56:10.196Z,11.53
2022-08-17T15:59:13.398Z,7.00
2022-08-17T16:03:14.013Z,7.10
2022-08-17T16:05:50.172Z,7.80
2022-08-17T16:08:54.310Z,7.33
2022-08-17T16:11:58.697Z,6.73
2022-08-17T16:15:02.627Z,9.03
2022-08-17T16:18:06.056Z,8.40
2022-08-17T16:21:42.908Z,6.90
2022-08-17T16:24:56.749Z,6.97
2022-08-17T16:28:01.719Z,6.77
2022-08-17T16:31:08.164Z,7.90
2022-08-17T16:34:17.549Z,8.13
2022-08-17T16:37:21.556Z,7.17
2022-08-17T16:40:26.948Z,10.20
2022-08-17T16:43:31.538Z,8.17
2022-08-17T16:46:34.554Z,6.77
2022-08-17T16:49:38.263Z,6.50
2022-08-17T16:52:41.853Z,6.07
2022-08-17T16:55:45.555Z,5.90
2022-08-17T16:58:50.123Z,6.30
2022-08-17T17:01:54.265Z,6.27
2022-08-17T17:05:04.611Z,6.83
2022-08-17T17:08:12.689Z,5.93
2022-08-17T17:11:25.803Z,6.70
2022-08-17T17:14:36.595Z,6.03
2022-08-17T17:17:40.750Z,6.27
2022-08-17T17:20:50.559Z,8.67
2022-08-17T17:23:57.535Z,9.07
2022-08-17T17:27:13.487Z,7.10
2022-08-17T17:30:21.599Z,7.97
2022-08-17T17:33:34.804Z,8.67
2022-08-17T17:36:45.286Z,5.77
2022-08-17T17:39:53.163Z,6.83
2022-08-17T17:43:14.331Z,7.30
2022-08-17T17:46:29.442Z,6.20
2022-08-17T17:49:37.042Z,10.00
2022-08-17T17:52:47.986Z,7.87
2022-08-17T17:56:09.764Z,5.87
2022-08-17T17:59:44.057Z,5.93
2022-08-17T18:03:07.633Z,8.83
2022-08-17T18:06:30.147Z,7.57
2022-08-17T18:09:54.838Z,6.30
2022-08-17T18:13:14.147Z,8.83
2022-08-17T18:16:19.128Z,10.37
2022-08-17T18:19:26.372Z,6.67
2022-08-17T18:22:30.971Z,5.20
2022-08-17T18:25:44.453Z,5.37
2022-08-17T18:28:51.763Z,6.97
2022-08-17T18:32:13.236Z,6.40
2022-08-17T18:35:35.144Z,5.17
2022-08-17T18:38:40.329Z,7.13
2022-08-17T18:41:45.095Z,7.97
2022-08-17T18:44:50.608Z,4.57
2022-08-17T18:47:57.425Z,4.73
2022-08-17T18:51:05.854Z,8.63
2022-08-17T18:54:15.957Z,4.27
2022-08-17T18:57:32.380Z,4.90
2022-08-17T19:00:38.300Z,8.97
2022-08-17T19:03:44.105Z,7.70
2022-08-17T19:07:04.732Z,7.07
2022-08-17T19:10:20.795Z,6.40
2022-08-17T19:13:30.262Z,13.40
2022-08-17T19:16:39.252Z,12.27
2022-08-17T19:19:51.068Z,9.97
2022-08-17T19:23:17.573Z,7.90
2022-08-17T19:26:53.977Z,7.70
2022-08-17T19:29:54.759Z,7.90
2022-08-17T19:32:58.430Z,8.57
2022-08-17T19:36:08.572Z,9.53
2022-08-17T19:39:20.126Z,8.40
2022-08-17T19:42:33.877Z,10.50
2022-08-17T19:45:56.001Z,8.37
2022-08-17T19:49:07.061Z,8.17
2022-08-17T19:52:31.342Z,7.07
2022-08-17T19:55:48.446Z,8.50
2022-08-17T19:58:58.919Z,7.57
2022-08-17T20:02:15.551Z,7.87
2022-08-17T20:05:23.688Z,8.20
2022-08-17T20:08:30.600Z,7.93
2022-08-17T20:11:41.283Z,8.70
2022-08-17T20:14:51.704Z,7.53
2022-08-17T20:18:00.749Z,7.90
2022-08-17T20:21:20.325Z,9.30
2022-08-17T20:24:35.854Z,8.17
2022-08-17T20:27:52.030Z,8.13
2022-08-17T20:30:55.571Z,7.60
2022-08-17T20:34:37.360Z,7.70
2022-08-17T20:37:44.751Z,8.37
2022-08-17T20:41:11.842Z,8.00
2022-08-17T20:44:32.651Z,8.03
2022-08-17T20:48:00.743Z,7.37
2022-08-17T20:51:19.770Z,7.30
2022-08-17T20:54:46.041Z,7.10
2022-08-17T20:57:49.550Z,7.03
2022-08-17T21:01:14.662Z,7.70
2022-08-17T21:04:45.482Z,6.77
2022-08-17T21:07:57.951Z,7.90
2022-08-17T21:11:15.878Z,7.60
2022-08-17T21:14:32.484Z,6.77
2022-08-17T21:17:44.368Z,6.93
2022-08-17T21:21:04.379Z,6.87
2022-08-17T21:24:25.132Z,6.43
2022-08-17T21:27:37.682Z,8.33
2022-08-17T21:30:48.002Z,6.57
2022-08-17T21:34:28.019Z,6.13
2022-08-17T21:37:39.140Z,6.03
2022-08-17T21:40:46.935Z,6.20
2022-08-17T21:43:52.443Z,7.17
2022-08-17T21:46:55.428Z,6.67
2022-08-17T21:50:18.687Z,6.70
2022-08-17T21:53:29.388Z,5.67
2022-08-17T21:56:41.400Z,5.03
2022-08-17T21:59:45.118Z,7.37
2022-08-17T22:02:55.393Z,5.17
2022-08-17T22:05:59.744Z,6.30
2022-08-17T22:09:13.228Z,5.43
2022-08-17T22:12:18.382Z,6.00
2022-08-17T22:15:21.476Z,5.70
2022-08-17T22:18:28.809Z,5.23
2022-08-17T22:21:33.172Z,5.40
2022-08-17T22:24:36.839Z,4.90
2022-08-17T22:27:49.678Z,4.90
2022-08-17T22:31:02.044Z,5.00
2022-08-17T22:34:13.611Z,5.73
2022-08-17T22:37:29.771Z,5.20
2022-08-17T22:40:35.181Z,5.20
2022-08-17T22:43:39.420Z,5.80
2022-08-17T22:46:57.067Z,5.13
2022-08-17T22:50:02.554Z,5.20
2022-08-17T22:53:34.006Z,5.13
2022-08-17T22:56:55.382Z,4.80
2022-08-17T22:59:58.470Z,4.47
2022-08-17T23:03:17.857Z,5.43
2022-08-17T23:06:21.006Z,4.57
2022-08-17T23:09:25.380Z,5.30
2022-08-17T23:12:28.598Z,4.40
2022-08-17T23:15:33.889Z,5.90
2022-08-17T23:18:37.336Z,4.37
2022-08-17T23:21:41.073Z,3.60
2022-08-17T23:24:48.940Z,3.47
2022-08-17T23:27:52.175Z,4.03
2022-08-17T23:30:56.351Z,3.90
2022-08-17T23:33:59.610Z,4.30
2022-08-17T23:37:04.251Z,3.20
2022-08-17T23:40:10.015Z,3.97
2022-08-17T23:43:24.094Z,3.67
2022-08-17T23:46:28.443Z,3.17
2022-08-17T23:49:32.199Z,3.17
2022-08-17T23:52:37.831Z,2.77
2022-08-17T23:55:42.176Z,3.10
2022-08-17T23:58:45.690Z,3.43
